Aviation Digital Data Service (ADDS)

Output produced by METARs form (0733 UTC 22 August 2017)
found at http://aviationweather.gov/adds/metars/
 
KSAN 220520Z 2206/2312 VRB04KT P6SM FEW018 
     FM221000 VRB02KT P6SM BKN015 
     FM221600 VRB04KT P6SM SCT020 
     FM221900 30010KT P6SM SKC 
     FM230300 VRB04KT P6SM SCT015 
     FM230800 VRB02KT P6SM BKN015